Time,TemperatureF,DewpointF,PressureIn,WindDirection,WindDirectionDegrees,WindSpeedMPH,WindSpeedGustMPH,Humidity,HourlyPrecipIn,Conditions,Clouds,dailyrainin,SolarRadiationWatts/m^2,SoftwareType,DateUTC
2013-03-09 00:11:00,48.0,41.0,29.98,South,182,6.0,12.0,76,-99.99,,,-99.99,0.000000,,2013-03-09 08:11:00,
2013-03-09 00:21:00,48.0,41.0,29.98,South,182,6.0,12.0,76,-99.99,,,-99.99,0.000000,,2013-03-09 08:21:00,
2013-03-09 00:31:00,48.0,41.0,29.98,South,182,6.0,12.0,76,-99.99,,,-99.99,0.000000,,2013-03-09 08:31:00,
2013-03-09 00:41:00,48.0,41.0,29.98,South,182,6.0,12.0,76,-99.99,,,-99.99,0.000000,,2013-03-09 08:41:00,
2013-03-09 00:52:00,48.0,41.0,29.98,South,182,6.0,12.0,76,-99.99,,,-99.99,0.000000,,2013-03-09 08:52:00,
2013-03-09 01:21:00,47.0,41.0,30.01,South,185,3.0,13.0,78,-99.99,,,-99.99,0.000000,,2013-03-09 09:21:00,
2013-03-09 01:31:00,47.0,41.0,30.01,South,185,3.0,13.0,78,-99.99,,,-99.99,0.000000,,2013-03-09 09:31:00,
2013-03-09 01:41:00,47.0,41.0,30.01,South,185,3.0,13.0,78,-99.99,,,-99.99,0.000000,,2013-03-09 09:41:00,
2013-03-09 01:52:00,47.0,41.0,30.01,South,185,3.0,13.0,78,-99.99,,,-99.99,0.000000,,2013-03-09 09:52:00,
2013-03-09 02:11:00,47.0,41.0,30.03,ESE,109,3.0,6.0,79,-99.99,,,-99.99,0.000000,,2013-03-09 10:11:00,
2013-03-09 02:21:00,47.0,41.0,30.03,ESE,109,3.0,6.0,79,-99.99,,,-99.99,0.000000,,2013-03-09 10:21:00,
2013-03-09 02:31:00,47.0,41.0,30.03,ESE,109,3.0,6.0,79,-99.99,,,-99.99,0.000000,,2013-03-09 10:31:00,
2013-03-09 02:41:00,47.0,41.0,30.03,ESE,109,3.0,6.0,79,-99.99,,,-99.99,0.000000,,2013-03-09 10:41:00,
2013-03-09 02:51:00,47.0,41.0,30.03,ESE,109,3.0,6.0,79,-99.99,,,-99.99,0.000000,,2013-03-09 10:51:00,
2013-03-09 03:11:00,45.0,40.0,30.05,East,95,3.0,6.0,83,-99.99,,,-99.99,0.000000,,2013-03-09 11:11:00,
2013-03-09 03:21:00,45.0,40.0,30.05,East,95,3.0,6.0,83,-99.99,,,-99.99,0.000000,,2013-03-09 11:21:00,
2013-03-09 03:32:00,45.0,40.0,30.05,East,95,3.0,6.0,83,-99.99,,,-99.99,0.000000,,2013-03-09 11:32:00,
2013-03-09 03:41:00,45.0,40.0,30.05,East,95,3.0,6.0,83,-99.99,,,-99.99,0.000000,,2013-03-09 11:41:00,
2013-03-09 03:52:00,45.0,40.0,30.05,East,95,3.0,6.0,83,-99.99,,,-99.99,0.000000,,2013-03-09 11:52:00,
2013-03-09 04:11:00,44.0,40.0,30.07,ENE,65,3.0,7.0,86,-99.99,,,-99.99,0.000000,,2013-03-09 12:11:00,
2013-03-09 04:21:00,44.0,40.0,30.07,ENE,65,3.0,7.0,86,-99.99,,,-99.99,0.000000,,2013-03-09 12:21:00,
2013-03-09 04:32:00,44.0,40.0,30.07,ENE,65,3.0,7.0,86,-99.99,,,-99.99,0.000000,,2013-03-09 12:32:00,
2013-03-09 04:42:00,44.0,40.0,30.07,ENE,65,3.0,7.0,86,-99.99,,,-99.99,0.000000,,2013-03-09 12:42:00,
2013-03-09 04:52:00,44.0,40.0,30.07,ENE,65,3.0,7.0,86,-99.99,,,-99.99,0.000000,,2013-03-09 12:52:00,
2013-03-09 05:21:00,44.0,40.0,30.10,ESE,113,2.0,6.0,87,-99.99,,,-99.99,0.000000,,2013-03-09 13:21:00,
2013-03-09 05:31:00,44.0,40.0,30.10,ESE,113,2.0,6.0,87,-99.99,,,-99.99,0.000000,,2013-03-09 13:31:00,
2013-03-09 05:41:00,44.0,40.0,30.10,ESE,113,2.0,6.0,87,-99.99,,,-99.99,0.000000,,2013-03-09 13:41:00,
2013-03-09 05:51:00,44.0,40.0,30.10,ESE,113,2.0,6.0,87,-99.99,,,-99.99,0.000000,,2013-03-09 13:51:00,
2013-03-09 06:11:00,43.0,40.0,30.12,South,176,1.0,7.0,88,-99.99,,,-99.99,0.000000,,2013-03-09 14:11:00,
2013-03-09 06:21:00,43.0,40.0,30.12,South,176,1.0,7.0,88,-99.99,,,-99.99,0.000000,,2013-03-09 14:21:00,
2013-03-09 06:31:00,43.0,40.0,30.12,South,176,1.0,7.0,88,-99.99,,,-99.99,0.000000,,2013-03-09 14:31:00,
2013-03-09 06:41:00,43.0,40.0,30.12,South,176,1.0,7.0,88,-99.99,,,-99.99,0.000000,,2013-03-09 14:41:00,
2013-03-09 06:52:00,43.0,40.0,30.12,South,176,1.0,7.0,88,-99.99,,,-99.99,0.000000,,2013-03-09 14:52:00,
2013-03-09 07:22:00,43.0,40.0,30.16,West,270,2.0,4.0,90,-99.99,,,-99.99,8.000000,,2013-03-09 15:22:00,
2013-03-09 07:31:00,43.0,40.0,30.16,West,270,2.0,4.0,90,-99.99,,,-99.99,8.000000,,2013-03-09 15:31:00,
2013-03-09 07:42:00,43.0,40.0,30.16,West,270,2.0,4.0,90,-99.99,,,-99.99,8.000000,,2013-03-09 15:42:00,
2013-03-09 07:52:00,43.0,40.0,30.16,West,270,2.0,4.0,90,-99.99,,,-99.99,8.000000,,2013-03-09 15:52:00,
2013-03-09 08:11:00,46.0,41.0,30.18,NW,325,4.0,7.0,83,-99.99,,,-99.99,155.000000,,2013-03-09 16:11:00,
2013-03-09 08:21:00,46.0,41.0,30.18,NW,325,4.0,7.0,83,-99.99,,,-99.99,155.000000,,2013-03-09 16:21:00,
2013-03-09 08:31:00,46.0,41.0,30.18,NW,325,4.0,7.0,83,-99.99,,,-99.99,155.000000,,2013-03-09 16:31:00,
2013-03-09 08:41:00,46.0,41.0,30.18,NW,325,4.0,7.0,83,-99.99,,,-99.99,155.000000,,2013-03-09 16:41:00,
2013-03-09 08:51:00,46.0,41.0,30.18,NW,325,4.0,7.0,83,-99.99,,,-99.99,155.000000,,2013-03-09 16:51:00,
2013-03-09 09:22:00,51.0,42.0,30.21,North,11,4.0,8.0,72,-99.99,,,-99.99,350.000000,,2013-03-09 17:22:00,
2013-03-09 09:32:00,51.0,42.0,30.21,North,11,4.0,8.0,72,-99.99,,,-99.99,350.000000,,2013-03-09 17:32:00,
2013-03-09 09:42:00,51.0,42.0,30.21,North,11,4.0,8.0,72,-99.99,,,-99.99,350.000000,,2013-03-09 17:42:00,
2013-03-09 09:52:00,51.0,42.0,30.21,North,11,4.0,8.0,72,-99.99,,,-99.99,350.000000,,2013-03-09 17:52:00,
2013-03-09 10:21:00,54.0,43.0,30.22,NNE,31,6.0,12.0,65,-99.99,,,-99.99,535.000000,,2013-03-09 18:21:00,
2013-03-09 10:31:00,54.0,43.0,30.22,NNE,31,6.0,12.0,65,-99.99,,,-99.99,535.000000,,2013-03-09 18:31:00,
2013-03-09 10:42:00,54.0,43.0,30.22,NNE,31,6.0,12.0,65,-99.99,,,-99.99,535.000000,,2013-03-09 18:42:00,
2013-03-09 10:51:00,54.0,43.0,30.22,NNE,31,6.0,12.0,65,-99.99,,,-99.99,535.000000,,2013-03-09 18:51:00,
2013-03-09 11:22:00,57.0,42.0,30.21,NNW,347,7.0,16.0,58,-99.99,,,-99.99,609.000000,,2013-03-09 19:22:00,
2013-03-09 11:32:00,57.0,42.0,30.21,NNW,347,7.0,16.0,58,-99.99,,,-99.99,609.000000,,2013-03-09 19:32:00,
2013-03-09 11:42:00,57.0,42.0,30.21,NNW,347,7.0,16.0,58,-99.99,,,-99.99,609.000000,,2013-03-09 19:42:00,
2013-03-09 11:51:00,57.0,42.0,30.21,NNW,347,7.0,16.0,58,-99.99,,,-99.99,609.000000,,2013-03-09 19:51:00,
2013-03-09 12:11:00,62.0,43.0,30.21,NNW,346,6.0,16.0,49,-99.99,,,-99.99,672.000000,,2013-03-09 20:11:00,
2013-03-09 12:21:00,62.0,43.0,30.21,NNW,346,6.0,16.0,49,-99.99,,,-99.99,672.000000,,2013-03-09 20:21:00,
2013-03-09 12:32:00,62.0,43.0,30.21,NNW,346,6.0,16.0,49,-99.99,,,-99.99,672.000000,,2013-03-09 20:32:00,
2013-03-09 12:41:00,62.0,43.0,30.21,NNW,346,6.0,16.0,49,-99.99,,,-99.99,672.000000,,2013-03-09 20:41:00,
2013-03-09 12:52:00,62.0,43.0,30.21,NNW,346,6.0,16.0,49,-99.99,,,-99.99,672.000000,,2013-03-09 20:52:00,
2013-03-09 13:11:00,66.0,32.0,30.20,North,349,8.0,26.0,28,-99.99,,,-99.99,782.000000,,2013-03-09 21:11:00,
2013-03-09 13:21:00,66.0,32.0,30.20,North,349,8.0,26.0,28,-99.99,,,-99.99,782.000000,,2013-03-09 21:21:00,
2013-03-09 13:31:00,66.0,32.0,30.20,North,349,8.0,26.0,28,-99.99,,,-99.99,782.000000,,2013-03-09 21:31:00,
2013-03-09 13:41:00,66.0,32.0,30.20,North,349,8.0,26.0,28,-99.99,,,-99.99,782.000000,,2013-03-09 21:41:00,
2013-03-09 13:51:00,66.0,32.0,30.20,North,349,8.0,26.0,28,-99.99,,,-99.99,782.000000,,2013-03-09 21:51:00,
2013-03-09 14:11:00,68.0,28.0,30.19,NNW,338,10.0,21.0,22,-99.99,,,-99.99,753.000000,,2013-03-09 22:11:00,
2013-03-09 14:21:00,68.0,28.0,30.19,NNW,338,10.0,21.0,22,-99.99,,,-99.99,753.000000,,2013-03-09 22:21:00,
2013-03-09 14:32:00,68.0,28.0,30.19,NNW,338,10.0,21.0,22,-99.99,,,-99.99,753.000000,,2013-03-09 22:32:00,
2013-03-09 14:41:00,68.0,28.0,30.19,NNW,338,10.0,21.0,22,-99.99,,,-99.99,753.000000,,2013-03-09 22:41:00,
2013-03-09 14:51:00,68.0,28.0,30.19,NNW,338,10.0,21.0,22,-99.99,,,-99.99,753.000000,,2013-03-09 22:51:00,
2013-03-09 15:11:00,71.0,25.0,30.18,NNW,336,7.0,20.0,18,-99.99,,,-99.99,655.000000,,2013-03-09 23:11:00,
2013-03-09 15:21:00,71.0,25.0,30.18,NNW,336,7.0,20.0,18,-99.99,,,-99.99,655.000000,,2013-03-09 23:21:00,
2013-03-09 15:32:00,71.0,25.0,30.18,NNW,336,7.0,20.0,18,-99.99,,,-99.99,655.000000,,2013-03-09 23:32:00,
2013-03-09 15:41:00,71.0,25.0,30.18,NNW,336,7.0,20.0,18,-99.99,,,-99.99,655.000000,,2013-03-09 23:41:00,
2013-03-09 15:52:00,71.0,25.0,30.18,NNW,336,7.0,20.0,18,-99.99,,,-99.99,655.000000,,2013-03-09 23:52:00,
2013-03-09 16:11:00,71.0,24.0,30.17,NNW,331,8.0,17.0,17,-99.99,,,-99.99,502.000000,,2013-03-10 00:11:00,
2013-03-09 16:22:00,71.0,24.0,30.17,NNW,331,8.0,17.0,17,-99.99,,,-99.99,502.000000,,2013-03-10 00:22:00,
2013-03-09 16:32:00,71.0,24.0,30.17,NNW,331,8.0,17.0,17,-99.99,,,-99.99,502.000000,,2013-03-10 00:32:00,
2013-03-09 16:42:00,71.0,24.0,30.17,NNW,331,8.0,17.0,17,-99.99,,,-99.99,502.000000,,2013-03-10 00:42:00,
2013-03-09 16:51:00,71.0,24.0,30.17,NNW,331,8.0,17.0,17,-99.99,,,-99.99,502.000000,,2013-03-10 00:51:00,
2013-03-09 17:11:00,70.0,25.0,30.17,NNW,335,8.0,18.0,18,-99.99,,,-99.99,308.000000,,2013-03-10 01:11:00,
2013-03-09 17:21:00,70.0,25.0,30.17,NNW,335,8.0,18.0,18,-99.99,,,-99.99,308.000000,,2013-03-10 01:21:00,
2013-03-09 17:31:00,70.0,25.0,30.17,NNW,335,8.0,18.0,18,-99.99,,,-99.99,308.000000,,2013-03-10 01:31:00,
2013-03-09 17:41:00,70.0,25.0,30.17,NNW,335,8.0,18.0,18,-99.99,,,-99.99,308.000000,,2013-03-10 01:41:00,
2013-03-09 17:51:00,70.0,25.0,30.17,NNW,335,8.0,18.0,18,-99.99,,,-99.99,308.000000,,2013-03-10 01:51:00,
2013-03-09 18:22:00,68.0,27.0,30.19,NNW,336,6.0,16.0,21,-99.99,,,-99.99,47.000000,,2013-03-10 02:22:00,
2013-03-09 18:31:00,68.0,27.0,30.19,NNW,336,6.0,16.0,21,-99.99,,,-99.99,47.000000,,2013-03-10 02:31:00,
2013-03-09 18:41:00,68.0,27.0,30.19,NNW,336,6.0,16.0,21,-99.99,,,-99.99,47.000000,,2013-03-10 02:41:00,
2013-03-09 18:52:00,68.0,27.0,30.19,NNW,336,6.0,16.0,21,-99.99,,,-99.99,47.000000,,2013-03-10 02:52:00,
2013-03-09 19:11:00,65.0,26.0,30.20,North,355,4.0,11.0,23,-99.99,,,-99.99,2.000000,,2013-03-10 03:11:00,
2013-03-09 19:22:00,65.0,26.0,30.20,North,355,4.0,11.0,23,-99.99,,,-99.99,2.000000,,2013-03-10 03:22:00,
2013-03-09 19:31:00,65.0,26.0,30.20,North,355,4.0,11.0,23,-99.99,,,-99.99,2.000000,,2013-03-10 03:31:00,
2013-03-09 19:42:00,65.0,26.0,30.20,North,355,4.0,11.0,23,-99.99,,,-99.99,2.000000,,2013-03-10 03:42:00,
2013-03-09 19:52:00,65.0,26.0,30.20,North,355,4.0,11.0,23,-99.99,,,-99.99,2.000000,,2013-03-10 03:52:00,
2013-03-09 20:21:00,64.0,27.0,30.21,NNW,348,6.0,13.0,25,-99.99,,,-99.99,0.000000,,2013-03-10 04:21:00,
2013-03-09 20:31:00,64.0,27.0,30.21,NNW,348,6.0,13.0,25,-99.99,,,-99.99,0.000000,,2013-03-10 04:31:00,
2013-03-09 20:41:00,64.0,27.0,30.21,NNW,348,6.0,13.0,25,-99.99,,,-99.99,0.000000,,2013-03-10 04:41:00,
2013-03-09 20:51:00,64.0,27.0,30.21,NNW,348,6.0,13.0,25,-99.99,,,-99.99,0.000000,,2013-03-10 04:51:00,
2013-03-09 21:22:00,63.0,28.0,30.21,North,355,4.0,10.0,26,-99.99,,,-99.99,0.000000,,2013-03-10 05:22:00,
2013-03-09 21:31:00,63.0,28.0,30.21,North,355,4.0,10.0,26,-99.99,,,-99.99,0.000000,,2013-03-10 05:31:00,
2013-03-09 21:42:00,63.0,28.0,30.21,North,355,4.0,10.0,26,-99.99,,,-99.99,0.000000,,2013-03-10 05:42:00,
2013-03-09 21:52:00,63.0,28.0,30.21,North,355,4.0,10.0,26,-99.99,,,-99.99,0.000000,,2013-03-10 05:52:00,
2013-03-09 22:11:00,59.0,29.0,30.22,NNW,327,4.0,10.0,32,-99.99,,,-99.99,0.000000,,2013-03-10 06:11:00,
2013-03-09 22:21:00,59.0,29.0,30.22,NNW,327,4.0,10.0,32,-99.99,,,-99.99,0.000000,,2013-03-10 06:21:00,
2013-03-09 22:32:00,59.0,29.0,30.22,NNW,327,4.0,10.0,32,-99.99,,,-99.99,0.000000,,2013-03-10 06:32:00,
2013-03-09 22:41:00,59.0,29.0,30.22,NNW,327,4.0,10.0,32,-99.99,,,-99.99,0.000000,,2013-03-10 06:41:00,
2013-03-09 22:51:00,59.0,29.0,30.22,NNW,327,4.0,10.0,32,-99.99,,,-99.99,0.000000,,2013-03-10 06:51:00,
2013-03-09 23:11:00,56.0,30.0,30.23,NNW,337,4.0,13.0,37,-99.99,,,-99.99,0.000000,,2013-03-10 07:11:00,
2013-03-09 23:21:00,56.0,30.0,30.23,NNW,337,4.0,13.0,37,-99.99,,,-99.99,0.000000,,2013-03-10 07:21:00,
2013-03-09 23:31:00,56.0,30.0,30.23,NNW,337,4.0,13.0,37,-99.99,,,-99.99,0.000000,,2013-03-10 07:31:00,
2013-03-09 23:41:00,56.0,30.0,30.23,NNW,337,4.0,13.0,37,-99.99,,,-99.99,0.000000,,2013-03-10 07:41:00,
2013-03-09 23:52:00,56.0,30.0,30.23,NNW,337,4.0,13.0,37,-99.99,,,-99.99,0.000000,,2013-03-10 07:52:00,